Time;durP1;ratioP1;P1;durP2;ratioP2;P2;SDS_P1;SDS_P2;PMS_P1;PMS_P2;Temp;Humidity;BMP_temperature;BMP_pressure;BME280_temperature;BME280_humidity;BME280_pressure;Samples;Min_cycle;Max_cycle;Signal;HPM_P1;HPM_P2
2023/03/08 00:00:12;;;;;;;2.17;0.55;;;;;;;;;;1043881;28;20464;-25
2023/03/08 00:00:42;;;;;;;1.10;0.40;;;;;;;;;;1043796;28;20472;-23
2023/03/08 00:01:15;;;;;;;0.35;0.35;;;;;;;;;;1043918;28;20028;-26
2023/03/08 00:01:45;;;;;;;2.55;0.85;;;;;;;;;;1043484;28;20064;-25
2023/03/08 00:02:16;;;;;;;2.10;0.50;;;;;;;;;;1043852;28;20021;-26
2023/03/08 00:02:46;;;;;;;4.38;0.25;;;;;;;;;;1043723;28;20432;-26
2023/03/08 00:03:17;;;;;;;0.75;0.75;;;;;;;;;;1043894;28;20036;-25
2023/03/08 00:03:50;;;;;;;0.43;0.40;;;;;;;;;;1043763;28;20337;-26
2023/03/08 00:04:20;;;;;;;0.10;0.10;;;;;;;;;;1043881;28;20075;-26
2023/03/08 00:04:54;;;;;;;0.77;0.30;;;;;;;;;;1043903;28;20071;-25
2023/03/08 00:05:25;;;;;;;1.13;0.43;;;;;;;;;;1043194;28;20051;-26
2023/03/08 00:05:55;;;;;;;0.75;0.65;;;;;;;;;;1044739;28;20028;-26
2023/03/08 00:06:26;;;;;;;0.95;0.65;;;;;;;;;;1044193;28;20533;-26
2023/03/08 00:06:56;;;;;;;1.60;0.60;;;;;;;;;;1043844;28;20025;-27
2023/03/08 00:07:27;;;;;;;0.20;0.20;;;;;;;;;;1043272;28;20059;-26
2023/03/08 00:07:58;;;;;;;1.02;0.90;;;;;;;;;;1042313;28;20056;-26
2023/03/08 00:08:28;;;;;;;3.17;0.75;;;;;;;;;;1043671;28;20021;-25
2023/03/08 00:08:59;;;;;;;1.38;0.40;;;;;;;;;;1043833;28;20506;-25
2023/03/08 00:09:30;;;;;;;0.38;0.38;;;;;;;;;;1043671;28;20028;-24
2023/03/08 00:10:00;;;;;;;2.40;0.40;;;;;;;;;;1043668;28;20476;-25
2023/03/08 00:10:31;;;;;;;1.60;1.23;;;;;;;;;;1043733;28;20025;-25
2023/03/08 00:11:05;;;;;;;1.25;0.65;;;;;;;;;;1043809;28;20074;-25
2023/03/08 00:11:36;;;;;;;1.35;1.25;;;;;;;;;;1043588;28;20086;-26
2023/03/08 00:12:07;;;;;;;0.57;0.20;;;;;;;;;;1043804;28;20025;-25
2023/03/08 00:12:37;;;;;;;0.98;0.50;;;;;;;;;;1043678;28;20036;-25
2023/03/08 00:13:08;;;;;;;1.65;1.15;;;;;;;;;;1043902;28;20567;-24
2023/03/08 00:13:39;;;;;;;0.75;0.70;;;;;;;;;;1043766;28;20052;-25
2023/03/08 00:14:09;;;;;;;0.38;0.35;;;;;;;;;;1043913;28;20063;-26
2023/03/08 00:14:40;;;;;;;0.77;0.65;;;;;;;;;;1043044;28;20049;-25
2023/03/08 00:15:10;;;;;;;1.08;0.73;;;;;;;;;;1043877;28;20107;-25
2023/03/08 00:15:41;;;;;;;0.10;0.10;;;;;;;;;;1043434;28;20108;-26
2023/03/08 00:16:12;;;;;;;0.88;0.20;;;;;;;;;;1043958;28;20017;-26
2023/03/08 00:16:43;;;;;;;1.75;0.45;;;;;;;;;;1043383;28;20468;-25
2023/03/08 00:17:13;;;;;;;2.03;1.15;;;;;;;;;;1043929;28;20021;-26
2023/03/08 00:17:44;;;;;;;5.50;1.05;;;;;;;;;;1043638;28;20067;-24
2023/03/08 00:18:14;;;;;;;3.55;1.38;;;;;;;;;;1043797;28;20047;-25
2023/03/08 00:18:45;;;;;;;0.32;0.32;;;;;;;;;;1043737;28;20396;-25
2023/03/08 00:19:15;;;;;;;1.27;0.73;;;;;;;;;;1044008;28;20025;-26
2023/03/08 00:19:46;;;;;;;1.77;1.65;;;;;;;;;;1042682;28;20028;-25
2023/03/08 00:20:17;;;;;;;1.95;1.45;;;;;;;;;;1042815;28;20063;-26
2023/03/08 00:20:56;;;;;;;0.17;0.13;;;;;;;;;;1043803;28;20032;-26
2023/03/08 00:21:27;;;;;;;3.80;0.55;;;;;;;;;;1043791;28;20060;-25
2023/03/08 00:21:58;;;;;;;0.50;0.50;;;;;;;;;;1043713;28;20032;-25
2023/03/08 00:22:28;;;;;;;1.02;0.40;;;;;;;;;;1043727;28;20044;-26
2023/03/08 00:22:59;;;;;;;1.52;1.00;;;;;;;;;;1043831;28;20025;-25
2023/03/08 00:23:29;;;;;;;1.13;1.02;;;;;;;;;;1043733;28;20029;-25
2023/03/08 00:24:00;;;;;;;3.60;0.30;;;;;;;;;;1043919;28;20024;-26
2023/03/08 00:24:30;;;;;;;2.58;0.75;;;;;;;;;;1043760;28;20029;-25
2023/03/08 00:25:01;;;;;;;0.17;0.17;;;;;;;;;;1042790;28;20017;-25
2023/03/08 00:25:31;;;;;;;0.63;0.47;;;;;;;;;;1043613;28;20466;-26
2023/03/08 00:26:02;;;;;;;8.48;0.77;;;;;;;;;;1043883;28;20025;-25
2023/03/08 00:26:33;;;;;;;0.25;0.25;;;;;;;;;;1043668;28;20025;-26
2023/03/08 00:27:03;;;;;;;2.08;0.38;;;;;;;;;;1043724;28;20056;-25
2023/03/08 00:27:35;;;;;;;4.07;0.57;;;;;;;;;;1043754;28;20021;-25
2023/03/08 00:28:05;;;;;;;1.40;0.85;;;;;;;;;;1043800;28;20029;-25
2023/03/08 00:28:36;;;;;;;1.65;0.60;;;;;;;;;;1043598;28;20020;-26
2023/03/08 00:29:06;;;;;;;1.08;0.55;;;;;;;;;;1043865;28;20115;-25
2023/03/08 00:29:37;;;;;;;1.38;0.32;;;;;;;;;;1043752;28;20236;-26
2023/03/08 00:30:08;;;;;;;2.63;1.08;;;;;;;;;;1043872;28;20027;-26
2023/03/08 00:30:38;;;;;;;1.75;0.32;;;;;;;;;;1043603;28;20020;-25
2023/03/08 00:31:10;;;;;;;0.10;0.10;;;;;;;;;;1043870;28;20119;-26
2023/03/08 00:31:40;;;;;;;0.80;0.52;;;;;;;;;;1043132;28;20035;-25
2023/03/08 00:32:11;;;;;;;2.80;1.23;;;;;;;;;;1043761;28;20404;-26
2023/03/08 00:32:41;;;;;;;2.40;0.60;;;;;;;;;;1043613;28;20021;-25
2023/03/08 00:33:12;;;;;;;0.50;0.30;;;;;;;;;;1043925;28;20047;-25
2023/03/08 00:33:42;;;;;;;2.10;0.75;;;;;;;;;;1043628;28;20017;-26
2023/03/08 00:34:13;;;;;;;0.08;0.08;;;;;;;;;;1043844;28;20020;-26
2023/03/08 00:34:45;;;;;;;0.98;0.73;;;;;;;;;;1043627;28;20423;-26
2023/03/08 00:35:18;;;;;;;5.38;1.27;;;;;;;;;;1042731;28;20032;-27
2023/03/08 00:36:03;;;;;;;10.73;1.63;;;;;;;;;;1043290;28;20388;-27
2023/03/08 00:36:34;;;;;;;1.20;0.75;;;;;;;;;;1042900;28;20017;-25
2023/03/08 00:37:04;;;;;;;0.40;0.40;;;;;;;;;;1043525;28;20397;-27
2023/03/08 00:37:35;;;;;;;2.28;0.50;;;;;;;;;;1043668;28;20108;-27
2023/03/08 00:38:05;;;;;;;5.40;2.15;;;;;;;;;;1043854;28;20021;-26
2023/03/08 00:38:36;;;;;;;8.77;4.97;;;;;;;;;;1043547;28;20362;-25
2023/03/08 00:39:07;;;;;;;11.00;5.03;;;;;;;;;;1043819;28;20021;-26
2023/03/08 00:39:37;;;;;;;11.73;3.70;;;;;;;;;;1043425;28;20837;-27
2023/03/08 00:40:08;;;;;;;2.78;2.45;;;;;;;;;;1043709;28;20430;-25
2023/03/08 00:40:39;;;;;;;3.33;1.98;;;;;;;;;;1043024;28;20036;-25
2023/03/08 00:41:10;;;;;;;6.45;2.28;;;;;;;;;;1043409;28;20028;-25
2023/03/08 00:41:40;;;;;;;5.05;2.17;;;;;;;;;;1043151;28;20124;-25
2023/03/08 00:42:11;;;;;;;3.97;2.28;;;;;;;;;;1043806;28;20060;-25
2023/03/08 00:42:41;;;;;;;5.10;2.65;;;;;;;;;;1043501;28;20021;-25
2023/03/08 00:43:12;;;;;;;3.00;2.00;;;;;;;;;;1043793;28;20029;-26
2023/03/08 00:43:43;;;;;;;3.28;2.17;;;;;;;;;;1043598;28;20112;-26
2023/03/08 00:44:13;;;;;;;4.07;2.10;;;;;;;;;;1043697;28;20032;-25
2023/03/08 00:44:44;;;;;;;3.67;2.80;;;;;;;;;;1043377;28;20021;-25
2023/03/08 00:45:14;;;;;;;6.75;3.65;;;;;;;;;;1043840;28;20028;-25
2023/03/08 00:45:45;;;;;;;7.70;3.78;;;;;;;;;;1043704;28;20043;-26
2023/03/08 00:46:16;;;;;;;6.47;3.67;;;;;;;;;;1043343;28;20021;-25
2023/03/08 00:46:46;;;;;;;17.63;4.15;;;;;;;;;;1043079;28;20025;-25
2023/03/08 00:47:17;;;;;;;10.77;5.47;;;;;;;;;;1043535;28;20111;-26
2023/03/08 00:47:47;;;;;;;10.40;4.82;;;;;;;;;;1043373;28;20520;-26
2023/03/08 00:48:18;;;;;;;15.10;5.18;;;;;;;;;;1043668;28;20021;-26
2023/03/08 00:48:48;;;;;;;9.27;5.60;;;;;;;;;;1043781;28;20021;-25
2023/03/08 00:49:19;;;;;;;13.13;4.57;;;;;;;;;;1043647;28;20032;-26
2023/03/08 00:49:50;;;;;;;5.65;3.47;;;;;;;;;;1043728;28;20033;-26
2023/03/08 00:50:20;;;;;;;7.30;4.72;;;;;;;;;;1043676;28;20025;-26
2023/03/08 00:50:51;;;;;;;6.28;4.18;;;;;;;;;;1043800;28;20128;-25
2023/03/08 00:51:22;;;;;;;8.63;5.18;;;;;;;;;;1043964;28;20032;-25
2023/03/08 00:51:52;;;;;;;3.75;2.95;;;;;;;;;;1043592;28;20125;-25
2023/03/08 00:52:23;;;;;;;1.13;0.65;;;;;;;;;;1043562;28;20059;-25
2023/03/08 00:52:53;;;;;;;1.60;1.45;;;;;;;;;;1043361;28;20009;-25
2023/03/08 00:53:24;;;;;;;2.88;1.02;;;;;;;;;;1043315;28;20396;-26
2023/03/08 00:53:54;;;;;;;2.42;1.20;;;;;;;;;;1042856;28;20404;-26
2023/03/08 00:54:25;;;;;;;1.92;0.57;;;;;;;;;;1043244;28;20021;-26
2023/03/08 00:54:55;;;;;;;1.38;1.00;;;;;;;;;;1043749;28;20132;-26
2023/03/08 00:55:26;;;;;;;17.10;1.25;;;;;;;;;;1043723;28;20032;-26
2023/03/08 00:55:57;;;;;;;2.05;1.85;;;;;;;;;;1043636;28;20025;-25
2023/03/08 00:56:28;;;;;;;3.47;1.63;;;;;;;;;;1043689;28;20025;-25
2023/03/08 00:56:58;;;;;;;3.10;1.17;;;;;;;;;;1043637;28;20020;-25
2023/03/08 00:57:30;;;;;;;1.98;0.85;;;;;;;;;;1043339;28;20037;-26
2023/03/08 00:58:01;;;;;;;0.80;0.80;;;;;;;;;;1042481;28;20252;-25
2023/03/08 00:58:32;;;;;;;7.43;1.73;;;;;;;;;;1042311;28;20028;-26
2023/03/08 00:59:02;;;;;;;2.17;1.05;;;;;;;;;;1043583;28;20025;-25
2023/03/08 00:59:33;;;;;;;3.78;1.52;;;;;;;;;;1043554;28;20029;-22
2023/03/08 01:00:07;;;;;;;15.48;1.88;;;;;;;;;;1043577;28;20025;-24
2023/03/08 01:00:37;;;;;;;1.60;0.93;;;;;;;;;;1043418;28;20028;-26
2023/03/08 01:01:10;;;;;;;3.13;2.35;;;;;;;;;;1043543;28;20563;-25
2023/03/08 01:01:41;;;;;;;2.58;0.95;;;;;;;;;;1043066;28;20025;-26
2023/03/08 01:02:12;;;;;;;2.33;0.90;;;;;;;;;;1043523;28;20021;-26
2023/03/08 01:02:42;;;;;;;5.00;3.08;;;;;;;;;;1043254;28;20021;-25
2023/03/08 01:03:13;;;;;;;0.85;0.40;;;;;;;;;;1043571;28;20017;-25
2023/03/08 01:03:44;;;;;;;5.45;1.92;;;;;;;;;;1043276;28;20029;-26
2023/03/08 01:04:14;;;;;;;5.82;0.98;;;;;;;;;;1043526;28;20033;-25
2023/03/08 01:04:45;;;;;;;1.50;0.70;;;;;;;;;;1043374;28;20029;-24
2023/03/08 01:05:15;;;;;;;1.75;1.38;;;;;;;;;;1043750;28;20093;-26
2023/03/08 01:05:47;;;;;;;2.22;1.58;;;;;;;;;;1043448;28;20107;-25
2023/03/08 01:06:18;;;;;;;1.05;0.93;;;;;;;;;;1042965;28;20053;-26
2023/03/08 01:06:48;;;;;;;2.80;1.05;;;;;;;;;;1043334;28;20017;-25
2023/03/08 01:07:21;;;;;;;3.20;0.68;;;;;;;;;;1043494;28;20029;-26
2023/03/08 01:07:51;;;;;;;3.22;1.27;;;;;;;;;;1041528;28;20025;-26
2023/03/08 01:08:23;;;;;;;1.55;0.88;;;;;;;;;;1043481;28;20113;-24
2023/03/08 01:08:53;;;;;;;1.13;0.85;;;;;;;;;;1043588;28;20361;-25
2023/03/08 01:09:24;;;;;;;3.30;1.27;;;;;;;;;;1043434;28;20025;-25
2023/03/08 01:09:55;;;;;;;3.40;1.15;;;;;;;;;;1043486;28;20025;-25
2023/03/08 01:10:25;;;;;;;10.07;0.95;;;;;;;;;;1043388;28;20017;-25
2023/03/08 01:10:58;;;;;;;1.63;0.95;;;;;;;;;;1043564;28;20057;-25
2023/03/08 01:11:28;;;;;;;2.22;0.80;;;;;;;;;;1043434;28;20016;-23
2023/03/08 01:11:59;;;;;;;2.60;1.00;;;;;;;;;;1043300;28;20198;-24
2023/03/08 01:12:31;;;;;;;1.75;0.80;;;;;;;;;;1043374;28;20025;-25
2023/03/08 01:13:02;;;;;;;9.15;2.67;;;;;;;;;;1042404;28;20028;-25
2023/03/08 01:13:33;;;;;;;4.47;1.60;;;;;;;;;;1043408;28;20387;-26
2023/03/08 01:14:05;;;;;;;2.50;0.98;;;;;;;;;;1043508;28;20168;-25
2023/03/08 01:14:36;;;;;;;0.80;0.80;;;;;;;;;;1043409;28;20061;-26
2023/03/08 01:15:07;;;;;;;0.90;0.75;;;;;;;;;;1043579;28;20032;-24
2023/03/08 01:15:37;;;;;;;0.50;0.50;;;;;;;;;;1043363;28;20060;-26
2023/03/08 01:16:18;;;;;;;1.33;1.00;;;;;;;;;;1043519;28;20162;-25
2023/03/08 01:16:49;;;;;;;3.80;2.05;;;;;;;;;;1042433;28;20053;-27
2023/03/08 01:17:19;;;;;;;2.50;1.65;;;;;;;;;;1043364;28;20032;-25
2023/03/08 01:17:50;;;;;;;3.65;1.25;;;;;;;;;;1043529;28;20021;-25
2023/03/08 01:18:21;;;;;;;2.20;0.98;;;;;;;;;;1043526;28;20032;-25
2023/03/08 01:18:51;;;;;;;5.18;2.15;;;;;;;;;;1043256;28;20489;-25
2023/03/08 01:19:22;;;;;;;8.45;1.80;;;;;;;;;;1043292;28;20029;-26
2023/03/08 01:19:52;;;;;;;0.60;0.60;;;;;;;;;;1043473;28;20035;-25
2023/03/08 01:20:22;;;;;;;2.92;2.08;;;;;;;;;;1043353;28;20415;-26
2023/03/08 01:21:03;;;;;;;1.73;1.63;;;;;;;;;;1043745;28;20032;-25
2023/03/08 01:21:34;;;;;;;3.55;0.85;;;;;;;;;;1042692;28;20025;-25
2023/03/08 01:22:04;;;;;;;2.92;0.77;;;;;;;;;;1043363;28;20108;-25
2023/03/08 01:22:35;;;;;;;2.17;1.05;;;;;;;;;;1043269;28;20352;-26
2023/03/08 01:23:05;;;;;;;2.92;1.02;;;;;;;;;;1043525;28;20031;-26
2023/03/08 01:23:36;;;;;;;7.57;1.27;;;;;;;;;;1043388;28;20404;-25
2023/03/08 01:24:06;;;;;;;2.20;0.65;;;;;;;;;;1043475;28;20033;-26
2023/03/08 01:24:37;;;;;;;1.77;1.23;;;;;;;;;;1043327;28;20035;-26
2023/03/08 01:25:08;;;;;;;3.33;1.70;;;;;;;;;;1043454;28;20071;-25
2023/03/08 01:25:39;;;;;;;2.78;1.85;;;;;;;;;;1043327;28;20021;-25
2023/03/08 01:26:14;;;;;;;4.05;2.28;;;;;;;;;;1043118;28;20021;-26
2023/03/08 01:26:44;;;;;;;1.42;1.30;;;;;;;;;;1043284;28;20451;-25
2023/03/08 01:27:15;;;;;;;6.90;1.73;;;;;;;;;;1043531;28;20032;-25
2023/03/08 01:27:46;;;;;;;6.00;3.45;;;;;;;;;;1043290;28;20443;-26
2023/03/08 01:28:16;;;;;;;13.95;3.15;;;;;;;;;;1043547;28;20166;-25
2023/03/08 01:28:47;;;;;;;15.13;3.90;;;;;;;;;;1043216;28;20032;-25
2023/03/08 01:29:18;;;;;;;5.78;3.50;;;;;;;;;;1043431;28;20480;-25
2023/03/08 01:29:48;;;;;;;6.22;2.55;;;;;;;;;;1043440;28;20021;-25
2023/03/08 01:30:19;;;;;;;7.88;2.95;;;;;;;;;;1043404;28;20033;-23
2023/03/08 01:30:49;;;;;;;7.30;2.90;;;;;;;;;;1043453;28;20017;-25
2023/03/08 01:31:21;;;;;;;9.05;3.80;;;;;;;;;;1043427;28;20042;-26
2023/03/08 01:31:52;;;;;;;18.33;3.30;;;;;;;;;;1043420;28;20067;-25
2023/03/08 01:32:22;;;;;;;5.20;2.72;;;;;;;;;;1043301;28;20029;-24
2023/03/08 01:32:53;;;;;;;10.75;2.05;;;;;;;;;;1043470;28;20028;-27
2023/03/08 01:33:24;;;;;;;4.90;1.73;;;;;;;;;;1043277;28;20030;-25
2023/03/08 01:33:54;;;;;;;8.38;1.95;;;;;;;;;;1043463;28;20079;-25
2023/03/08 01:34:25;;;;;;;4.40;2.17;;;;;;;;;;1042820;28;20112;-26
2023/03/08 01:35:00;;;;;;;7.43;2.90;;;;;;;;;;1043366;28;20021;-25
2023/03/08 01:35:31;;;;;;;3.55;1.73;;;;;;;;;;1042215;28;20056;-25
2023/03/08 01:36:03;;;;;;;10.93;2.55;;;;;;;;;;1042697;28;20017;-25
2023/03/08 01:36:34;;;;;;;11.20;4.78;;;;;;;;;;1043323;28;20033;-25
2023/03/08 01:37:04;;;;;;;20.05;5.75;;;;;;;;;;1043342;28;20024;-25
2023/03/08 01:37:35;;;;;;;17.98;6.20;;;;;;;;;;1043397;28;20021;-27
2023/03/08 01:38:05;;;;;;;18.90;4.80;;;;;;;;;;1043571;28;20064;-25
2023/03/08 01:38:36;;;;;;;16.30;6.55;;;;;;;;;;1043295;28;20495;-26
2023/03/08 01:39:07;;;;;;;10.38;6.32;;;;;;;;;;1043530;28;20040;-25
2023/03/08 01:39:37;;;;;;;10.30;3.55;;;;;;;;;;1043398;28;20017;-24
2023/03/08 01:40:08;;;;;;;11.02;5.22;;;;;;;;;;1043352;28;20029;-26
2023/03/08 01:40:38;;;;;;;16.48;4.95;;;;;;;;;;1043361;28;20205;-26
2023/03/08 01:41:14;;;;;;;7.35;3.70;;;;;;;;;;1043549;28;20032;-25
2023/03/08 01:41:44;;;;;;;6.85;2.67;;;;;;;;;;1043235;28;20028;-26
2023/03/08 01:42:15;;;;;;;11.13;3.08;;;;;;;;;;1043328;28;20029;-25
2023/03/08 01:42:45;;;;;;;11.50;2.42;;;;;;;;;;1043138;28;20021;-26
2023/03/08 01:43:26;;;;;;;7.60;2.78;;;;;;;;;;1043400;28;20476;-25
2023/03/08 01:43:57;;;;;;;12.27;4.03;;;;;;;;;;1043221;28;20480;-25
2023/03/08 01:44:28;;;;;;;21.58;7.13;;;;;;;;;;1043340;28;20025;-25
2023/03/08 01:45:00;;;;;;;16.00;7.15;;;;;;;;;;1043222;28;20024;-26
2023/03/08 01:45:49;;;;;;;17.60;5.15;;;;;;;;;;1043243;28;20047;-26
2023/03/08 01:46:24;;;;;;;18.35;6.40;;;;;;;;;;1043391;28;20028;-25
2023/03/08 01:46:55;;;;;;;15.88;5.82;;;;;;;;;;1042740;28;20025;-25
2023/03/08 01:47:27;;;;;;;14.63;6.20;;;;;;;;;;1043251;28;20025;-25
2023/03/08 01:47:58;;;;;;;20.15;7.22;;;;;;;;;;1043355;28;20028;-26
2023/03/08 01:48:34;;;;;;;17.85;7.55;;;;;;;;;;1043064;28;20510;-25
2023/03/08 01:49:14;;;;;;;12.10;4.85;;;;;;;;;;1043564;28;20024;-25
2023/03/08 01:49:44;;;;;;;15.77;6.22;;;;;;;;;;1043329;28;20119;-25
2023/03/08 01:50:15;;;;;;;15.48;5.13;;;;;;;;;;1043542;28;20032;-26
2023/03/08 01:50:46;;;;;;;16.50;5.93;;;;;;;;;;1043224;28;20024;-24
2023/03/08 01:51:19;;;;;;;18.63;6.43;;;;;;;;;;1043065;28;20504;-25
2023/03/08 01:51:53;;;;;;;12.27;4.65;;;;;;;;;;1043881;28;20032;-25
2023/03/08 01:52:38;;;;;;;19.27;6.22;;;;;;;;;;1043920;28;20100;-25
2023/03/08 01:53:08;;;;;;;12.00;4.57;;;;;;;;;;1044073;28;20028;-26
2023/03/08 01:53:39;;;;;;;10.48;5.70;;;;;;;;;;1043856;28;20080;-26
2023/03/08 01:54:13;;;;;;;14.20;5.40;;;;;;;;;;1044220;28;20052;-26
2023/03/08 01:54:46;;;;;;;12.25;7.70;;;;;;;;;;1039409;28;20025;-26
2023/03/08 01:55:17;;;;;;;33.53;7.75;;;;;;;;;;1038721;28;20021;-26
2023/03/08 01:55:48;;;;;;;15.35;5.97;;;;;;;;;;1039513;28;20032;-27
2023/03/08 01:56:19;;;;;;;10.00;4.75;;;;;;;;;;1040213;28;20052;-25
2023/03/08 01:56:50;;;;;;;15.02;5.82;;;;;;;;;;1044031;28;20060;-25
2023/03/08 01:57:34;;;;;;;16.97;6.23;;;;;;;;;;984696;28;1683481;-25
2023/03/08 01:58:05;;;;;;;9.90;4.68;;;;;;;;;;1043736;28;20090;-24
2023/03/08 01:58:36;;;;;;;12.68;4.47;;;;;;;;;;1044216;28;20078;-26
2023/03/08 01:59:06;;;;;;;4.68;2.95;;;;;;;;;;1044401;28;21239;-26
2023/03/08 01:59:37;;;;;;;9.77;5.03;;;;;;;;;;1044038;28;20032;-25
2023/03/08 02:00:17;;;;;;;6.72;2.95;;;;;;;;;;1044345;28;20481;-26
2023/03/08 02:00:47;;;;;;;6.18;3.63;;;;;;;;;;1043303;28;20075;-25
2023/03/08 02:01:19;;;;;;;10.98;4.93;;;;;;;;;;1044232;28;20078;-26
2023/03/08 02:01:49;;;;;;;5.82;3.35;;;;;;;;;;1044092;28;20040;-25
2023/03/08 02:02:22;;;;;;;10.02;3.88;;;;;;;;;;1044122;28;20024;-26
2023/03/08 02:03:03;;;;;;;9.05;4.50;;;;;;;;;;1044247;28;20036;-26
2023/03/08 02:03:34;;;;;;;9.18;4.72;;;;;;;;;;1043596;28;20492;-26
2023/03/08 02:04:05;;;;;;;8.55;2.33;;;;;;;;;;1044341;28;20029;-24
2023/03/08 02:04:35;;;;;;;8.10;4.45;;;;;;;;;;1044154;28;20174;-26
2023/03/08 02:05:07;;;;;;;7.28;3.30;;;;;;;;;;1044349;28;20028;-26
2023/03/08 02:05:41;;;;;;;5.72;3.25;;;;;;;;;;1044203;28;20111;-25
2023/03/08 02:06:13;;;;;;;18.15;5.00;;;;;;;;;;1044510;28;20024;-25
2023/03/08 02:06:44;;;;;;;10.68;5.00;;;;;;;;;;1043834;28;20028;-25
2023/03/08 02:07:15;;;;;;;8.68;4.57;;;;;;;;;;1043958;28;20029;-25
2023/03/08 02:07:45;;;;;;;14.68;5.90;;;;;;;;;;1043241;28;20029;-25
2023/03/08 02:08:16;;;;;;;13.65;5.15;;;;;;;;;;1044499;28;20029;-26
2023/03/08 02:08:47;;;;;;;13.57;6.82;;;;;;;;;;1044058;28;20094;-26
2023/03/08 02:09:18;;;;;;;18.08;5.90;;;;;;;;;;1044340;28;20055;-25
2023/03/08 02:09:49;;;;;;;7.10;4.07;;;;;;;;;;1044236;28;20539;-25
2023/03/08 02:10:19;;;;;;;13.18;3.80;;;;;;;;;;1044264;28;20029;-25
2023/03/08 02:10:50;;;;;;;11.60;5.80;;;;;;;;;;1044354;28;20033;-25
2023/03/08 02:11:21;;;;;;;10.90;4.60;;;;;;;;;;1044106;28;20025;-26
2023/03/08 02:11:53;;;;;;;11.13;4.70;;;;;;;;;;1044316;28;20024;-25
2023/03/08 02:12:25;;;;;;;17.88;4.40;;;;;;;;;;1043979;28;20396;-26
2023/03/08 02:12:55;;;;;;;5.60;3.63;;;;;;;;;;1044324;28;20025;-26
2023/03/08 02:13:26;;;;;;;27.27;5.30;;;;;;;;;;1043854;28;20395;-26
2023/03/08 02:13:57;;;;;;;13.23;5.32;;;;;;;;;;1044204;28;20476;-26
2023/03/08 02:14:28;;;;;;;10.85;5.55;;;;;;;;;;1044216;28;20111;-25
2023/03/08 02:14:58;;;;;;;6.88;4.25;;;;;;;;;;1044296;28;20032;-25
2023/03/08 02:15:29;;;;;;;6.55;4.10;;;;;;;;;;1044141;28;20481;-25
2023/03/08 02:16:01;;;;;;;7.18;4.13;;;;;;;;;;1044280;28;20488;-25
2023/03/08 02:16:31;;;;;;;11.93;5.20;;;;;;;;;;1042976;28;20033;-26
2023/03/08 02:17:02;;;;;;;27.95;3.97;;;;;;;;;;1044101;28;20427;-25
2023/03/08 02:17:39;;;;;;;3.22;2.08;;;;;;;;;;1044177;28;20369;-23
2023/03/08 02:18:10;;;;;;;9.00;4.22;;;;;;;;;;1043683;28;20480;-26
2023/03/08 02:18:50;;;;;;;8.95;4.28;;;;;;;;;;1044044;28;20021;-25
2023/03/08 02:19:26;;;;;;;20.63;4.35;;;;;;;;;;1044174;28;20508;-26
2023/03/08 02:20:00;;;;;;;4.68;2.97;;;;;;;;;;1043937;28;20088;-26
2023/03/08 02:20:34;;;;;;;10.38;5.60;;;;;;;;;;1044277;28;20439;-26
2023/03/08 02:21:04;;;;;;;4.43;2.90;;;;;;;;;;1044637;28;20021;-26
2023/03/08 02:21:35;;;;;;;10.43;3.83;;;;;;;;;;1044195;28;20048;-24
2023/03/08 02:22:10;;;;;;;13.20;4.30;;;;;;;;;;1044173;28;20017;-25
2023/03/08 02:22:41;;;;;;;6.40;2.20;;;;;;;;;;1043484;28;20525;-26
2023/03/08 02:23:16;;;;;;;5.80;2.20;;;;;;;;;;1044394;28;20028;-26
2023/03/08 02:23:46;;;;;;;4.55;2.63;;;;;;;;;;1044169;28;20025;-26
2023/03/08 02:24:18;;;;;;;4.47;2.83;;;;;;;;;;1044370;28;20079;-24
2023/03/08 02:24:49;;;;;;;4.70;2.15;;;;;;;;;;1044269;28;20094;-26
2023/03/08 02:25:19;;;;;;;5.40;3.85;;;;;;;;;;1044029;28;20075;-26
2023/03/08 02:25:51;;;;;;;10.15;2.92;;;;;;;;;;1044243;28;20446;-25
2023/03/08 02:26:22;;;;;;;6.97;3.15;;;;;;;;;;1044249;28;20032;-26
2023/03/08 02:26:58;;;;;;;10.00;3.67;;;;;;;;;;1044202;28;20017;-26
2023/03/08 02:27:29;;;;;;;4.43;2.40;;;;;;;;;;1044334;28;20027;-25
2023/03/08 02:28:00;;;;;;;3.53;2.13;;;;;;;;;;1044741;28;20035;-25
2023/03/08 02:28:31;;;;;;;3.25;1.88;;;;;;;;;;1044470;28;20025;-26
2023/03/08 02:29:01;;;;;;;4.53;2.25;;;;;;;;;;1044130;28;20050;-24
2023/03/08 02:29:32;;;;;;;3.78;2.78;;;;;;;;;;1044161;28;20503;-25
2023/03/08 02:30:03;;;;;;;8.45;2.58;;;;;;;;;;1044260;28;20017;-26
2023/03/08 02:30:35;;;;;;;9.05;3.15;;;;;;;;;;1044098;28;20560;-26
2023/03/08 02:31:06;;;;;;;2.15;1.95;;;;;;;;;;1044236;28;20120;-26
2023/03/08 02:31:36;;;;;;;3.65;2.22;;;;;;;;;;1043558;28;20029;-25
2023/03/08 02:32:07;;;;;;;3.05;2.75;;;;;;;;;;1043910;28;20104;-25
2023/03/08 02:32:37;;;;;;;1.95;1.45;;;;;;;;;;1043638;28;20067;-25
2023/03/08 02:33:08;;;;;;;7.03;3.65;;;;;;;;;;1043838;28;20104;-26
2023/03/08 02:33:39;;;;;;;8.25;3.15;;;;;;;;;;1044076;28;20032;-26
2023/03/08 02:34:09;;;;;;;4.97;2.05;;;;;;;;;;1044255;28;20472;-28
2023/03/08 02:34:40;;;;;;;4.07;2.35;;;;;;;;;;1044125;28;20431;-26
2023/03/08 02:35:10;;;;;;;10.35;2.72;;;;;;;;;;1044279;28;20158;-25
2023/03/08 02:35:42;;;;;;;14.63;2.63;;;;;;;;;;1043868;28;20123;-25
2023/03/08 02:36:13;;;;;;;5.22;2.80;;;;;;;;;;1044138;28;20086;-26
2023/03/08 02:36:43;;;;;;;5.97;1.80;;;;;;;;;;1043785;28;20051;-26
2023/03/08 02:37:14;;;;;;;5.00;2.30;;;;;;;;;;1043945;28;20120;-25
2023/03/08 02:37:44;;;;;;;5.13;3.00;;;;;;;;;;1043924;28;20021;-26
2023/03/08 02:38:16;;;;;;;2.60;1.67;;;;;;;;;;1044196;28;20032;-26
2023/03/08 02:38:47;;;;;;;4.00;2.45;;;;;;;;;;1042866;28;20025;-25
2023/03/08 02:39:17;;;;;;;7.50;4.18;;;;;;;;;;1044259;28;20109;-25
2023/03/08 02:39:48;;;;;;;3.60;2.20;;;;;;;;;;1044132;28;20029;-25
2023/03/08 02:40:19;;;;;;;6.05;1.73;;;;;;;;;;1044065;28;20115;-26
2023/03/08 02:40:50;;;;;;;9.27;2.97;;;;;;;;;;1044174;28;20029;-25
2023/03/08 02:41:20;;;;;;;5.00;3.42;;;;;;;;;;1043938;28;20024;-26
2023/03/08 02:41:51;;;;;;;9.05;3.30;;;;;;;;;;1043969;28;20033;-26
2023/03/08 02:42:21;;;;;;;8.60;2.85;;;;;;;;;;1044169;28;20028;-26
2023/03/08 02:42:54;;;;;;;3.45;2.35;;;;;;;;;;1043956;28;20021;-25
2023/03/08 02:43:25;;;;;;;2.28;2.08;;;;;;;;;;1043587;28;20373;-24
2023/03/08 02:43:55;;;;;;;6.57;2.42;;;;;;;;;;1044220;28;20075;-26
2023/03/08 02:44:26;;;;;;;3.53;2.25;;;;;;;;;;1044085;28;20021;-26
2023/03/08 02:44:56;;;;;;;3.30;2.35;;;;;;;;;;1044190;28;20033;-26
2023/03/08 02:45:27;;;;;;;6.38;2.83;;;;;;;;;;1044042;28;20464;-26
2023/03/08 02:45:58;;;;;;;2.50;1.42;;;;;;;;;;1044187;28;20032;-26
2023/03/08 02:46:28;;;;;;;1.63;1.52;;;;;;;;;;1043959;28;20542;-26
2023/03/08 02:46:59;;;;;;;4.95;2.90;;;;;;;;;;1043894;28;20037;-26
2023/03/08 02:47:29;;;;;;;9.55;2.88;;;;;;;;;;1043947;28;20591;-26
2023/03/08 02:48:01;;;;;;;10.00;3.65;;;;;;;;;;1044098;28;20029;-26
2023/03/08 02:48:31;;;;;;;23.58;4.13;;;;;;;;;;1044052;28;20021;-25
2023/03/08 02:49:02;;;;;;;4.57;2.42;;;;;;;;;;1044078;28;20459;-27
2023/03/08 02:49:32;;;;;;;3.78;2.13;;;;;;;;;;1043994;28;20024;-25
2023/03/08 02:50:03;;;;;;;8.02;2.05;;;;;;;;;;1044133;28;20017;-26
2023/03/08 02:50:35;;;;;;;13.50;2.80;;;;;;;;;;1044077;28;20025;-26
2023/03/08 02:51:06;;;;;;;4.30;2.75;;;;;;;;;;1044241;28;20148;-26
2023/03/08 02:51:36;;;;;;;6.68;2.83;;;;;;;;;;1043960;28;20059;-24
2023/03/08 02:52:07;;;;;;;13.75;1.35;;;;;;;;;;1044146;28;20072;-25
2023/03/08 02:52:37;;;;;;;5.50;2.35;;;;;;;;;;1043892;28;20033;-26
2023/03/08 02:53:08;;;;;;;7.10;3.67;;;;;;;;;;1044222;28;20021;-25
2023/03/08 02:53:38;;;;;;;8.82;2.83;;;;;;;;;;1044034;28;20029;-26
2023/03/08 02:54:09;;;;;;;27.65;2.15;;;;;;;;;;1043546;28;20090;-26
2023/03/08 02:54:39;;;;;;;18.48;2.45;;;;;;;;;;1043667;28;20032;-25
2023/03/08 02:55:10;;;;;;;14.00;2.45;;;;;;;;;;1044200;28;20115;-26
2023/03/08 02:55:41;;;;;;;5.53;2.47;;;;;;;;;;1043816;28;20021;-26
2023/03/08 02:56:11;;;;;;;8.65;2.13;;;;;;;;;;1044124;28;20086;-26
2023/03/08 02:56:42;;;;;;;2.83;1.15;;;;;;;;;;1043771;28;20112;-25
2023/03/08 02:57:12;;;;;;;11.63;2.13;;;;;;;;;;1044064;28;20024;-25
2023/03/08 02:57:43;;;;;;;4.78;3.03;;;;;;;;;;1043911;28;20025;-26
2023/03/08 02:58:13;;;;;;;4.70;2.20;;;;;;;;;;1044279;28;20424;-26
2023/03/08 02:58:44;;;;;;;5.90;2.63;;;;;;;;;;1043585;28;20114;-26
2023/03/08 02:59:14;;;;;;;11.77;3.63;;;;;;;;;;1044164;28;20021;-23
2023/03/08 02:59:45;;;;;;;7.88;2.20;;;;;;;;;;1044007;28;20048;-26
2023/03/08 03:00:15;;;;;;;2.03;1.10;;;;;;;;;;1044131;28;20031;-26
2023/03/08 03:00:46;;;;;;;6.65;1.42;;;;;;;;;;1044022;28;20024;-26
2023/03/08 03:01:16;;;;;;;2.97;1.55;;;;;;;;;;1044115;28;20028;-26
2023/03/08 03:01:47;;;;;;;2.65;1.73;;;;;;;;;;1043943;28;20020;-26
2023/03/08 03:02:17;;;;;;;7.03;1.73;;;;;;;;;;1043965;28;20074;-27
2023/03/08 03:02:48;;;;;;;6.38;2.55;;;;;;;;;;1043064;28;20024;-25
2023/03/08 03:03:19;;;;;;;2.63;0.82;;;;;;;;;;1043887;28;20033;-25
2023/03/08 03:03:52;;;;;;;4.40;2.20;;;;;;;;;;1043992;28;20105;-26
2023/03/08 03:04:23;;;;;;;18.77;1.65;;;;;;;;;;1043799;28;20400;-26
2023/03/08 03:04:53;;;;;;;4.57;2.08;;;;;;;;;;1044034;28;20016;-25
2023/03/08 03:05:24;;;;;;;8.55;2.55;;;;;;;;;;1043892;28;20033;-25
2023/03/08 03:05:54;;;;;;;1.90;1.05;;;;;;;;;;1043808;28;20044;-25
2023/03/08 03:06:25;;;;;;;3.38;1.20;;;;;;;;;;1043867;28;20111;-27
2023/03/08 03:06:55;;;;;;;12.15;3.22;;;;;;;;;;1043865;28;20020;-25
2023/03/08 03:07:26;;;;;;;11.57;2.05;;;;;;;;;;1043550;28;20025;-25